Archival Weather

NSFA McMurdo Sound

NSFA McMurdo Sound, Antarctica (NZCM)

Report from: Tuesday, September 19, 2023 11:55 PM UTC
Current time: Monday, June 17, 2024 10:41 AM UTC

Current weather – Weather history – Daily summaries
Weather forecast

Temperature-13.3°C (8.1°F)
Wind chill-19.6°C (-3.3°F)
Dew point-20.6°C (-5.1°F)
Winds 6 kts (3.1 m/s, 6.9 mph) Vrb
Winds variableWinds variable
Visibility6.2 mi. (10 km)
Clouds Few clouds 6,000 ft. (1,829 m)
Altimeter28.77 in.Hg (974 mB)
Relative humidity54 %
Density altitude-5,617 ft. (-1,712 m)
Sea-level pressure107.5 kPa (1075 mB, 31.74 in.Hg)
Max temp last 6 hours-11.2°C (11.8°F)
Min temp last 6 hours-14.3°C (6.3°F)
Remarks Fully automated report
Automated weather observing station with precipitation discriminator
Pressure falling more slowly
Flight conditions Visual Meteorological Conditions
Raw dataNZCM 192355Z AUTO VRB06KT 9999 FEW060 M13/M21 A2877 RMK AO2 SLP747 T11331206 11112 21143 56006
An error has occurred. This application may no longer respond until reloaded. Reload 🗙